Aviation Digital Data Service (ADDS)

Output produced by METARs form (0601 UTC 19 August 2019)
found at http://www.aviationweather.gov/metar/data/
 
METAR text: KGTU 190556Z AUTO 16012KT 10SM CLR 29/22 A2996 RMK AO2 SLP136 T02890222 10367 20289 403780267 51023
Conditions at: KGTU (GEORGETOWN , TX, US) observed 0556 UTC 19 August 2019
Temperature: 28.9°C (84°F)
Dewpoint: 22.2°C (72°F) [RH = 67%]
Pressure (altimeter): 29.96 inches Hg (1014.6 mb)
[Sea-level pressure: 1013.6 mb]
Winds: from the SSE (160 degrees) at 14 MPH (12 knots; 6.2 m/s)
Visibility: 10 or more miles (16+ km)
Ceiling: at least 12,000 feet AGL
Clouds: sky clear below 12,000 feet AGL
Weather: automated observation with no human augmentation;
there may or may not be significant weather present at this time